Overview Statistics Trail Chart Weather Telemetry Raw packets
 

This is the latest recevied weather packets stored in our database for station/object W0CHP-13. If no packets are shown the sender has not sent any weather packets the latest 10 day(s).

<< 48 49 50 51 52 53 54 >>
Time Temp. Humidity Pressure Rain* Wind** Luminosity Snow
1787959516 25.56° C 50% 1016.5 hPa 0 mm - 45 W/m² -
1787958918 25.56° C 49% 1016.5 hPa 0 mm - 45 W/m² -
1787958317 26.11° C 47% 1016.5 hPa 0 mm - 66 W/m² -
1787957716 26.11° C 45% 1016.5 hPa 0 mm - 74 W/m² -
1787957117 26.67° C 44% 1016.7 hPa 0 mm - 119 W/m² -
1787956515 26.11° C 45% 1016.5 hPa 0 mm - 218 W/m² -
1787955918 26.67° C 42% 1016.5 hPa 0 mm - 119 W/m² -
1787955316 26.67° C 43% 1016.5 hPa 0 mm - 125 W/m² -
1787954718 26.67° C 43% 1016.8 hPa 0 mm - 138 W/m² -
1787954116 27.22° C 44% 1016.8 hPa 0 mm - 145 W/m² -
1787953519 27.78° C 41% 1016.9 hPa 0 mm - 149 W/m² -
1787952917 28.33° C 40% 1016.9 hPa 0 mm - 175 W/m² -
1787952315 27.78° C 41% 1017.2 hPa 0 mm - 413 W/m² -
1787951718 28.33° C 41% 1017.2 hPa 0 mm - 199 W/m² -
1787951116 28.33° C 41% 1017.1 hPa 0 mm - 284 W/m² -
1787950518 28.33° C 41% 1017.2 hPa 0 mm - 374 W/m² -
1787949915 28.33° C 39% 1017.2 hPa 0 mm - 388 W/m² -
1787949317 28.33° C 41% 1016.9 hPa 0 mm - 282 W/m² -
1787948715 28.33° C 40% 1017.2 hPa 0 mm - 440 W/m² -
1787948117 28.89° C 38% 1017.2 hPa 0 mm - 316 W/m² -
1787947516 28.33° C 39% 1017.2 hPa 0 mm - 466 W/m² -
1787946918 28.89° C 38% 1017.3 hPa 0 mm - 394 W/m² -
1787946317 28.89° C 37% 1017.6 hPa 0 mm - 443 W/m² -
1787945715 28.89° C 39% 1017.8 hPa 0 mm - 552 W/m² -
1787945117 28.89° C 39% 1017.9 hPa 0 mm - 613 W/m² -

* Rain latest hour (hover to see other rain measurements)
** Current wind speed in m/s (hover to see current wind gust speed)